createdAt,value
2023-04-18T00:00:57.177Z,15.37
2023-04-18T00:03:30.903Z,14.67
2023-04-18T00:06:03.929Z,14.87
2023-04-18T00:08:36.651Z,15.17
2023-04-18T00:11:09.457Z,15.23
2023-04-18T00:13:42.338Z,14.67
2023-04-18T00:16:16.585Z,16.57
2023-04-18T00:18:49.421Z,15.93
2023-04-18T00:21:23.262Z,15.93
2023-04-18T00:23:56.323Z,14.07
2023-04-18T00:26:29.140Z,14.53
2023-04-18T00:29:06.410Z,14.30
2023-04-18T00:31:42.746Z,15.43
2023-04-18T00:34:15.681Z,15.10
2023-04-18T00:36:48.923Z,15.57
2023-04-18T00:39:21.641Z,15.07
2023-04-18T00:41:54.294Z,15.07
2023-04-18T00:44:27.075Z,15.67
2023-04-18T00:47:01.218Z,15.27
2023-04-18T00:49:34.502Z,14.33
2023-04-18T00:52:07.384Z,15.10
2023-04-18T00:54:43.176Z,14.77
2023-04-18T00:57:16.200Z,16.63
2023-04-18T00:59:48.945Z,14.27
2023-04-18T01:02:23.273Z,13.97
2023-04-18T01:04:56.309Z,14.63
2023-04-18T01:07:30.600Z,16.10
2023-04-18T01:10:05.961Z,14.50
2023-04-18T01:12:38.667Z,14.90
2023-04-18T01:15:11.882Z,13.80
2023-04-18T01:17:46.365Z,15.03
2023-04-18T01:20:22.707Z,14.23
2023-04-18T01:22:56.618Z,14.47
2023-04-18T01:25:30.778Z,14.47
2023-04-18T01:28:04.560Z,13.53
2023-04-18T01:30:37.456Z,14.30
2023-04-18T01:33:10.324Z,13.50
2023-04-18T01:35:43.030Z,13.90
2023-04-18T01:38:15.911Z,13.90
2023-04-18T01:40:50.663Z,13.83
2023-04-18T01:43:25.701Z,13.97
2023-04-18T01:45:59.764Z,14.20
2023-04-18T01:48:33.051Z,13.83
2023-04-18T01:51:06.137Z,14.57
2023-04-18T01:53:38.817Z,13.93
2023-04-18T01:56:15.316Z,14.93
2023-04-18T01:58:48.031Z,13.23
2023-04-18T02:01:20.890Z,14.00
2023-04-18T02:03:56.556Z,14.37
2023-04-18T02:06:29.452Z,13.83
2023-04-18T02:09:02.325Z,14.00
2023-04-18T02:11:36.541Z,13.63
2023-04-18T02:14:09.361Z,12.93
2023-04-18T02:16:42.155Z,13.30
2023-04-18T02:19:14.989Z,12.77
2023-04-18T02:21:47.703Z,13.43
2023-04-18T02:24:20.521Z,14.20
2023-04-18T02:26:54.740Z,13.67
2023-04-18T02:29:27.861Z,13.17
2023-04-18T02:32:00.739Z,13.40
2023-04-18T02:34:33.724Z,13.30
2023-04-18T02:37:06.499Z,14.13
2023-04-18T02:39:39.226Z,13.60
2023-04-18T02:42:13.924Z,13.87
2023-04-18T02:44:47.763Z,12.80
2023-04-18T02:47:20.558Z,12.77
2023-04-18T02:49:53.496Z,13.43
2023-04-18T02:52:26.685Z,14.33
2023-04-18T02:54:59.364Z,12.57
2023-04-18T02:57:33.646Z,12.90
2023-04-18T03:00:07.908Z,13.27
2023-04-18T03:02:40.945Z,11.87
2023-04-18T03:05:15.802Z,13.07
2023-04-18T03:07:48.638Z,12.77
2023-04-18T03:10:23.525Z,13.40
2023-04-18T03:12:57.608Z,12.77
2023-04-18T03:15:31.111Z,12.50
2023-04-18T03:18:03.996Z,12.73
2023-04-18T03:20:37.488Z,12.40
2023-04-18T03:23:10.381Z,13.70
2023-04-18T03:25:45.692Z,13.53
2023-04-18T03:28:22.320Z,12.93
2023-04-18T03:30:55.143Z,12.73
2023-04-18T03:33:28.745Z,12.37
2023-04-18T03:36:01.670Z,12.70
2023-04-18T03:38:34.380Z,13.53
2023-04-18T03:41:07.191Z,12.37
2023-04-18T03:43:41.333Z,12.23
2023-04-18T03:46:14.075Z,12.60
2023-04-18T03:48:46.927Z,12.97
2023-04-18T03:51:19.752Z,12.20
2023-04-18T03:53:52.626Z,10.80
2023-04-18T03:56:25.367Z,12.00
2023-04-18T03:58:59.725Z,10.67
2023-04-18T04:01:32.733Z,12.70
2023-04-18T04:04:05.785Z,12.53
2023-04-18T04:06:38.697Z,12.83
2023-04-18T04:09:11.671Z,12.70
2023-04-18T04:11:45.923Z,13.10
2023-04-18T04:14:20.057Z,12.67
2023-04-18T04:16:52.884Z,13.83
2023-04-18T04:19:25.879Z,12.17
2023-04-18T04:21:58.687Z,11.77
2023-04-18T04:24:33.281Z,13.20
2023-04-18T04:27:06.209Z,13.20
2023-04-18T04:29:41.332Z,13.13
2023-04-18T04:32:16.847Z,13.03
2023-04-18T04:34:50.581Z,13.30
2023-04-18T04:37:23.743Z,14.00
2023-04-18T04:39:57.019Z,12.90
2023-04-18T04:42:29.824Z,13.80
2023-04-18T04:45:03.988Z,14.57
2023-04-18T04:47:39.007Z,13.43
2023-04-18T04:50:15.375Z,13.53
2023-04-18T04:52:50.964Z,13.50
2023-04-18T04:55:24.571Z,13.57
2023-04-18T04:57:59.750Z,14.47
2023-04-18T05:00:34.108Z,14.17
2023-04-18T05:03:07.186Z,14.10
2023-04-18T05:05:40.204Z,12.63
2023-04-18T05:08:12.983Z,13.73
2023-04-18T05:10:45.985Z,13.67
2023-04-18T05:13:18.755Z,14.90
2023-04-18T05:15:55.632Z,14.03
2023-04-18T05:18:28.332Z,14.47
2023-04-18T05:21:01.506Z,14.10
2023-04-18T05:23:36.784Z,14.37
2023-04-18T05:26:12.182Z,14.83
2023-04-18T05:28:44.881Z,14.70
2023-04-18T05:31:19.087Z,14.77
2023-04-18T05:33:52.010Z,15.60
2023-04-18T05:36:24.744Z,13.10
2023-04-18T05:38:57.434Z,14.60
2023-04-18T05:41:30.415Z,14.20
2023-04-18T05:44:05.761Z,14.53
2023-04-18T05:46:40.304Z,13.83
2023-04-18T05:49:13.118Z,14.37
2023-04-18T05:51:46.145Z,14.63
2023-04-18T05:54:20.876Z,14.57
2023-04-18T05:56:53.591Z,13.30
2023-04-18T05:59:28.594Z,13.30
2023-04-18T06:02:03.112Z,13.17
2023-04-18T06:04:36.050Z,14.77
2023-04-18T06:07:09.120Z,13.27
2023-04-18T06:09:41.911Z,13.57
2023-04-18T06:12:17.310Z,12.67
2023-04-18T06:14:52.663Z,13.30
2023-04-18T06:17:26.723Z,13.80
2023-04-18T06:20:00.498Z,12.60
2023-04-18T06:22:33.863Z,13.67
2023-04-18T06:25:08.781Z,12.43
2023-04-18T06:27:41.651Z,13.13
2023-04-18T06:30:15.015Z,11.90
2023-04-18T06:32:49.457Z,12.23
2023-04-18T06:35:26.651Z,12.23
2023-04-18T06:37:59.575Z,13.70
2023-04-18T06:40:32.394Z,11.70
2023-04-18T06:43:05.479Z,11.83
2023-04-18T06:45:38.417Z,11.77
2023-04-18T06:48:12.731Z,12.63
2023-04-18T06:50:45.710Z,11.93
2023-04-18T06:53:18.814Z,12.17
2023-04-18T06:55:51.707Z,11.80
2023-04-18T06:58:24.473Z,10.93
2023-04-18T07:00:57.414Z,12.23
2023-04-18T07:03:35.950Z,12.50
2023-04-18T07:06:10.924Z,10.60
2023-04-18T07:08:43.763Z,11.70
2023-04-18T07:11:18.455Z,11.50
2023-04-18T07:13:51.332Z,10.97
2023-04-18T07:16:24.143Z,12.43
2023-04-18T07:18:58.424Z,8.73
2023-04-18T07:21:33.887Z,11.10
2023-04-18T07:24:06.948Z,12.40
2023-04-18T07:26:40.023Z,11.83
2023-04-18T07:29:13.808Z,11.07
2023-04-18T07:31:46.663Z,11.30
2023-04-18T07:34:22.018Z,11.33
2023-04-18T07:36:54.835Z,11.33
2023-04-18T07:39:28.256Z,10.57
2023-04-18T07:42:01.025Z,11.20
2023-04-18T07:44:36.277Z,11.87
2023-04-18T07:47:10.936Z,10.97
2023-04-18T07:49:45.481Z,11.77
2023-04-18T07:52:18.366Z,11.40
2023-04-18T07:54:53.941Z,10.77
2023-04-18T07:57:26.718Z,11.43
2023-04-18T07:59:59.464Z,11.40
2023-04-18T08:02:37.637Z,11.57
2023-04-18T08:05:12.119Z,11.23
2023-04-18T08:07:44.970Z,11.10
2023-04-18T08:10:17.787Z,11.53
2023-04-18T08:12:50.616Z,10.87
2023-04-18T08:15:23.538Z,12.13
2023-04-18T08:17:56.603Z,10.40
2023-04-18T08:20:31.301Z,12.20
2023-04-18T08:23:07.988Z,10.97
2023-04-18T08:25:42.545Z,11.90
2023-04-18T08:28:15.638Z,11.23
2023-04-18T08:30:49.159Z,11.10
2023-04-18T08:33:23.084Z,11.60
2023-04-18T08:35:57.538Z,10.67
2023-04-18T08:38:30.657Z,11.37
2023-04-18T08:41:03.582Z,11.47
2023-04-18T08:43:36.297Z,11.53
2023-04-18T08:46:09.134Z,12.00
2023-04-18T08:48:42.410Z,11.30
2023-04-18T08:51:16.529Z,11.37
2023-04-18T08:53:52.866Z,11.80
2023-04-18T08:56:27.288Z,11.13
2023-04-18T08:59:00.748Z,10.40
2023-04-18T09:01:53.141Z,10.97
2023-04-18T09:04:37.947Z,11.97
2023-04-18T09:07:12.922Z,11.20
2023-04-18T09:09:47.102Z,10.70
2023-04-18T09:12:22.401Z,10.57
2023-04-18T09:14:57.794Z,11.57
2023-04-18T09:17:34.948Z,10.60
2023-04-18T09:20:10.607Z,11.50
2023-04-18T09:22:47.213Z,10.77
2023-04-18T09:25:27.519Z,10.83
2023-04-18T09:28:01.050Z,10.07
2023-04-18T09:30:38.067Z,10.40
2023-04-18T09:33:12.710Z,10.57
2023-04-18T09:35:45.540Z,10.27
2023-04-18T09:38:19.969Z,9.50
2023-04-18T09:41:07.855Z,9.80
2023-04-18T09:43:40.616Z,11.03
2023-04-18T09:46:13.719Z,10.73
2023-04-18T09:48:46.686Z,11.27
2023-04-18T09:51:19.684Z,11.70
2023-04-18T09:53:54.499Z,12.03
2023-04-18T09:56:32.626Z,11.50
2023-04-18T09:59:08.593Z,10.93
2023-04-18T10:01:41.905Z,11.33
2023-04-18T10:04:15.952Z,11.40
2023-04-18T10:06:49.163Z,11.43
2023-04-18T10:09:23.552Z,11.30
2023-04-18T10:11:57.517Z,10.87
2023-04-18T10:14:31.413Z,10.73
2023-04-18T10:17:04.319Z,10.83
2023-04-18T10:19:38.771Z,10.97
2023-04-18T10:22:12.803Z,11.07
2023-04-18T10:24:53.079Z,10.30
2023-04-18T10:27:44.615Z,10.50
2023-04-18T10:30:17.763Z,9.87
2023-04-18T10:32:50.618Z,10.50
2023-04-18T10:35:23.717Z,10.27
2023-04-18T10:38:02.882Z,10.10
2023-04-18T10:40:37.146Z,10.80
2023-04-18T10:43:09.905Z,9.73
2023-04-18T10:45:42.748Z,9.63
2023-04-18T10:48:26.003Z,10.30
2023-04-18T10:51:15.741Z,11.43
2023-04-18T10:53:50.979Z,10.40
2023-04-18T10:56:26.147Z,10.37
2023-04-18T10:59:02.354Z,10.23
2023-04-18T11:01:38.363Z,9.83
2023-04-18T11:04:15.402Z,10.67
2023-04-18T11:06:50.285Z,9.90
2023-04-18T11:09:24.061Z,9.23
2023-04-18T11:12:06.725Z,10.50
2023-04-18T11:14:42.813Z,9.90
2023-04-18T11:17:17.653Z,9.57
2023-04-18T11:19:51.427Z,9.80
2023-04-18T11:22:24.438Z,10.87
2023-04-18T11:24:59.038Z,9.97
2023-04-18T11:27:33.380Z,10.40
2023-04-18T11:30:07.252Z,10.00
2023-04-18T11:32:40.106Z,10.30
2023-04-18T11:35:14.559Z,10.37
2023-04-18T11:37:49.937Z,10.30
2023-04-18T11:40:22.925Z,9.03
2023-04-18T11:42:57.213Z,12.27
2023-04-18T11:45:30.230Z,9.53
2023-04-18T11:48:03.373Z,10.33
2023-04-18T11:50:36.787Z,9.57
2023-04-18T11:53:12.034Z,11.50
2023-04-18T11:55:54.787Z,9.77
2023-04-18T11:58:33.958Z,9.70
2023-04-18T12:01:21.570Z,9.70
2023-04-18T12:04:02.128Z,10.70
2023-04-18T12:06:50.470Z,11.37
2023-04-18T12:09:24.472Z,11.77
2023-04-18T12:12:00.950Z,10.77
2023-04-18T12:14:36.915Z,10.87
2023-04-18T12:17:12.667Z,11.47
2023-04-18T12:19:48.012Z,10.83
2023-04-18T12:22:37.393Z,12.03
2023-04-18T12:25:24.316Z,11.50
2023-04-18T12:27:59.574Z,11.40
2023-04-18T12:30:37.359Z,11.90
2023-04-18T12:33:10.579Z,11.80
2023-04-18T12:35:43.576Z,11.90
2023-04-18T12:38:16.344Z,12.73
2023-04-18T12:40:49.382Z,12.10
2023-04-18T12:43:22.242Z,13.23
2023-04-18T12:45:56.722Z,12.33
2023-04-18T12:48:31.727Z,12.70
2023-04-18T12:51:04.754Z,12.87
2023-04-18T12:53:37.532Z,12.93
2023-04-18T12:56:10.850Z,12.00
2023-04-18T12:58:43.697Z,11.80
2023-04-18T13:01:18.020Z,12.17
2023-04-18T13:04:03.851Z,13.03
2023-04-18T13:06:41.772Z,11.40
2023-04-18T13:09:16.553Z,12.03
2023-04-18T13:11:50.156Z,13.17
2023-04-18T13:14:24.388Z,13.13
2023-04-18T13:16:58.883Z,12.80
2023-04-18T13:19:33.735Z,12.30
2023-04-18T13:22:06.556Z,13.60
2023-04-18T13:24:39.281Z,12.80
2023-04-18T13:27:12.276Z,13.23
2023-04-18T13:29:45.659Z,14.20
2023-04-18T13:32:20.243Z,12.63
2023-04-18T13:34:52.859Z,12.53
2023-04-18T13:37:27.093Z,12.90
2023-04-18T13:40:03.058Z,12.57
2023-04-18T13:42:37.092Z,12.43
2023-04-18T13:45:12.344Z,11.13
2023-04-18T13:47:49.421Z,12.00
2023-04-18T13:50:24.220Z,11.60
2023-04-18T13:52:56.998Z,10.63
2023-04-18T13:55:32.755Z,11.23
2023-04-18T13:58:07.000Z,11.63
2023-04-18T14:00:40.965Z,12.27
2023-04-18T14:03:15.468Z,11.13
2023-04-18T14:05:48.358Z,10.53
2023-04-18T14:08:21.312Z,11.30
2023-04-18T14:10:54.177Z,10.60
2023-04-18T14:13:27.167Z,10.20
2023-04-18T14:16:00.165Z,10.67
2023-04-18T14:18:34.543Z,10.53
2023-04-18T14:21:07.346Z,10.70
2023-04-18T14:23:42.681Z,11.00
2023-04-18T14:26:15.486Z,11.20
2023-04-18T14:28:48.330Z,10.73
2023-04-18T14:31:23.572Z,10.53
2023-04-18T14:33:57.680Z,10.40
2023-04-18T14:36:31.756Z,10.50
2023-04-18T14:39:04.789Z,9.57
2023-04-18T14:41:37.577Z,9.93
2023-04-18T14:44:10.328Z,9.20
2023-04-18T14:46:43.348Z,9.47
2023-04-18T14:49:18.128Z,9.37
2023-04-18T14:51:50.889Z,9.53
2023-04-18T14:54:24.047Z,8.80
2023-04-18T14:56:57.333Z,9.57
2023-04-18T14:59:30.248Z,7.93
2023-04-18T15:02:03.299Z,8.20
2023-04-18T15:04:37.881Z,7.43
2023-04-18T15:07:10.709Z,8.67
2023-04-18T15:09:43.504Z,8.23
2023-04-18T15:12:16.243Z,7.77
2023-04-18T15:14:49.265Z,7.57
2023-04-18T15:17:22.008Z,8.13
2023-04-18T15:19:56.375Z,7.03
2023-04-18T15:22:29.103Z,7.20
2023-04-18T15:25:02.068Z,7.37
2023-04-18T15:27:34.782Z,6.47
2023-04-18T15:30:09.614Z,6.17
2023-04-18T15:32:44.249Z,7.43
2023-04-18T15:35:18.513Z,7.00
2023-04-18T15:37:54.255Z,6.20
2023-04-18T15:40:27.070Z,5.53
2023-04-18T15:42:59.834Z,6.67
2023-04-18T15:45:32.709Z,5.90
2023-04-18T15:48:05.580Z,5.90
2023-04-18T15:50:45.656Z,6.00
2023-04-18T15:53:18.494Z,5.60
2023-04-18T15:56:01.596Z,5.17
2023-04-18T15:58:34.380Z,5.67
2023-04-18T16:01:10.079Z,5.70
2023-04-18T16:03:43.233Z,4.77
2023-04-18T16:06:17.858Z,5.07
2023-04-18T16:08:50.559Z,5.03
2023-04-18T16:11:26.185Z,5.27
2023-04-18T16:13:59.202Z,4.60
2023-04-18T16:16:32.494Z,4.47
2023-04-18T16:19:05.648Z,4.73
2023-04-18T16:21:39.859Z,4.17
2023-04-18T16:24:13.075Z,4.00
2023-04-18T16:26:46.030Z,4.03
2023-04-18T16:29:18.715Z,4.57
2023-04-18T16:31:52.123Z,4.50
2023-04-18T16:34:24.954Z,4.83
2023-04-18T16:36:59.145Z,4.17
2023-04-18T16:39:31.929Z,3.70
2023-04-18T16:42:04.953Z,3.87
2023-04-18T16:44:39.312Z,4.03
2023-04-18T16:47:12.114Z,3.90
2023-04-18T16:49:49.468Z,4.00
2023-04-18T16:52:24.142Z,4.27
2023-04-18T16:54:56.916Z,3.90
2023-04-18T16:57:29.754Z,3.83
2023-04-18T17:00:04.265Z,4.07
2023-04-18T17:02:39.740Z,4.20
2023-04-18T17:05:12.742Z,4.17
2023-04-18T17:07:49.756Z,3.70
2023-04-18T17:10:22.755Z,4.10
2023-04-18T17:12:57.500Z,4.40
2023-04-18T17:15:30.761Z,3.83
2023-04-18T17:18:03.793Z,3.93
2023-04-18T17:20:37.043Z,4.10
2023-04-18T17:23:11.285Z,4.20
2023-04-18T17:25:44.132Z,4.27
2023-04-18T17:28:16.944Z,4.03
2023-04-18T17:30:50.227Z,3.87
2023-04-18T17:33:22.878Z,4.27
2023-04-18T17:35:55.707Z,3.67
2023-04-18T17:38:30.042Z,4.30
2023-04-18T17:41:03.125Z,5.00
2023-04-18T17:43:36.610Z,3.33
2023-04-18T17:46:09.558Z,4.30
2023-04-18T17:48:42.452Z,4.80
2023-04-18T17:51:16.342Z,4.43
2023-04-18T17:53:51.019Z,4.87
2023-04-18T17:56:24.016Z,4.90
2023-04-18T17:59:03.651Z,4.63
2023-04-18T18:01:36.526Z,4.37
2023-04-18T18:04:10.113Z,4.50
2023-04-18T18:06:45.019Z,4.10
2023-04-18T18:09:19.208Z,4.57
2023-04-18T18:11:53.968Z,4.77
2023-04-18T18:14:28.325Z,4.37
2023-04-18T18:17:01.085Z,4.13
2023-04-18T18:19:35.284Z,4.63
2023-04-18T18:22:08.436Z,4.80
2023-04-18T18:24:42.579Z,4.70
2023-04-18T18:27:15.642Z,4.77
2023-04-18T18:29:50.312Z,4.53
2023-04-18T18:32:23.182Z,4.43
2023-04-18T18:34:56.051Z,4.53
2023-04-18T18:37:28.916Z,4.50
2023-04-18T18:40:04.782Z,3.73
2023-04-18T18:42:37.525Z,4.43
2023-04-18T18:45:10.854Z,4.43
2023-04-18T18:47:43.623Z,4.23
2023-04-18T18:50:17.742Z,3.87
2023-04-18T18:52:50.501Z,4.67
2023-04-18T18:55:32.552Z,4.13
2023-04-18T18:58:07.728Z,4.30
2023-04-18T19:00:40.489Z,5.07
2023-04-18T19:03:13.393Z,4.70
2023-04-18T19:05:46.406Z,4.70
2023-04-18T19:08:19.184Z,4.40
2023-04-18T19:10:53.303Z,4.30
2023-04-18T19:13:26.435Z,5.07
2023-04-18T19:15:59.571Z,5.17
2023-04-18T19:18:32.348Z,4.73
2023-04-18T19:21:05.353Z,4.33
2023-04-18T19:23:38.221Z,4.60
2023-04-18T19:26:12.595Z,4.63
2023-04-18T19:28:46.272Z,5.33
2023-04-18T19:31:19.212Z,4.60
2023-04-18T19:33:52.222Z,5.20
2023-04-18T19:36:25.138Z,4.53
2023-04-18T19:38:58.025Z,4.70
2023-04-18T19:41:34.820Z,5.60
2023-04-18T19:44:07.615Z,4.93
2023-04-18T19:46:40.887Z,4.67
2023-04-18T19:49:14.187Z,5.50
2023-04-18T19:51:47.271Z,5.10
2023-04-18T19:54:21.812Z,5.50
2023-04-18T19:56:56.477Z,5.57
2023-04-18T19:59:29.492Z,5.07
2023-04-18T20:02:06.535Z,5.87
2023-04-18T20:04:40.536Z,5.10
2023-04-18T20:07:13.610Z,5.80
2023-04-18T20:09:46.493Z,5.83
2023-04-18T20:12:20.648Z,5.40
2023-04-18T20:14:55.576Z,5.80
2023-04-18T20:17:30.465Z,5.30
2023-04-18T20:20:04.922Z,5.03
2023-04-18T20:22:40.160Z,5.00
2023-04-18T20:25:12.979Z,5.63
2023-04-18T20:27:47.289Z,6.13
2023-04-18T20:30:21.547Z,5.53
2023-04-18T20:32:58.068Z,5.27
2023-04-18T20:35:31.585Z,5.87
2023-04-18T20:38:06.651Z,5.50
2023-04-18T20:40:39.864Z,5.80
2023-04-18T20:43:17.408Z,5.30
2023-04-18T20:45:51.472Z,6.23
2023-04-18T20:48:24.443Z,5.93
2023-04-18T20:50:57.209Z,5.43
2023-04-18T20:53:30.427Z,5.83
2023-04-18T20:56:06.000Z,5.93
2023-04-18T20:58:49.517Z,6.37
2023-04-18T21:01:25.481Z,6.53
2023-04-18T21:03:58.451Z,6.10
2023-04-18T21:06:31.416Z,6.60
2023-04-18T21:09:04.407Z,6.70
2023-04-18T21:11:37.217Z,6.97
2023-04-18T21:14:11.378Z,6.67
2023-04-18T21:16:43.946Z,7.27
2023-04-18T21:19:16.865Z,6.83
2023-04-18T21:21:49.571Z,7.37
2023-04-18T21:24:22.296Z,7.70
2023-04-18T21:26:55.032Z,6.90
2023-04-18T21:29:29.158Z,7.03
2023-04-18T21:32:01.920Z,6.23
2023-04-18T21:34:36.778Z,6.63
2023-04-18T21:37:09.508Z,7.60
2023-04-18T21:39:44.714Z,6.83
2023-04-18T21:42:17.534Z,7.50
2023-04-18T21:44:51.624Z,8.17
2023-04-18T21:47:25.942Z,7.50
2023-04-18T21:49:58.917Z,7.07
2023-04-18T21:52:31.679Z,7.43
2023-04-18T21:55:05.346Z,7.27
2023-04-18T21:57:41.084Z,6.83
2023-04-18T22:00:16.562Z,6.53
2023-04-18T22:02:49.499Z,6.03
2023-04-18T22:05:22.617Z,6.97
2023-04-18T22:07:58.410Z,6.63
2023-04-18T22:10:34.142Z,6.43
2023-04-18T22:13:07.206Z,6.97
2023-04-18T22:15:44.712Z,6.80
2023-04-18T22:18:18.972Z,6.57
2023-04-18T22:20:53.626Z,6.50
2023-04-18T22:23:27.025Z,6.20
2023-04-18T22:25:59.814Z,6.60
2023-04-18T22:28:33.949Z,6.53
2023-04-18T22:31:08.505Z,6.30
2023-04-18T22:33:41.336Z,6.13
2023-04-18T22:36:14.074Z,5.47
2023-04-18T22:38:46.886Z,6.13
2023-04-18T22:41:19.743Z,5.17
2023-04-18T22:43:55.212Z,5.20
2023-04-18T22:46:34.184Z,5.53
2023-04-18T22:49:07.264Z,5.30
2023-04-18T22:51:40.192Z,4.33
2023-04-18T22:54:13.307Z,5.17
2023-04-18T22:56:46.259Z,5.27
2023-04-18T22:59:18.958Z,4.87
2023-04-18T23:01:53.074Z,5.37
2023-04-18T23:04:26.326Z,5.30
2023-04-18T23:06:59.173Z,4.40
2023-04-18T23:09:32.032Z,5.00
2023-04-18T23:12:05.054Z,4.97
2023-04-18T23:14:38.847Z,4.30
2023-04-18T23:17:12.971Z,4.60
2023-04-18T23:19:46.078Z,4.60
2023-04-18T23:22:18.828Z,5.07
2023-04-18T23:24:51.701Z,5.10
2023-04-18T23:27:24.414Z,4.13
2023-04-18T23:29:57.160Z,4.03
2023-04-18T23:32:31.446Z,3.77
2023-04-18T23:35:04.586Z,5.53
2023-04-18T23:37:37.264Z,4.10
2023-04-18T23:40:10.144Z,4.10
2023-04-18T23:42:43.809Z,4.13
2023-04-18T23:45:16.555Z,3.60
2023-04-18T23:47:50.775Z,4.37
2023-04-18T23:50:23.509Z,4.43
2023-04-18T23:52:56.307Z,4.30
2023-04-18T23:55:29.076Z,5.00
2023-04-18T23:58:01.919Z,3.83
